Portada
METAR-TAF:

METAR-TAF

Aeroports :

Council Bluffs, Iowa, Estats Units d'Amèrica

latitud: 41-16N, longitud: 095-46W, altitud: 382 m

Observació

L'informe es va fer fa 23 minuts, a les 21:15 UTC
Vent 13 kt del Nord/Nord-Oest
Temperatura 1°C
Humitat 100%
Pressió 1019 hPa
Visibilitat: 16.1 km
Cel ennuvolat a una alçada de 1400 ft
Cel cobert a una alçada de 2200 ft

METAR: KCBF 212115Z AUTO 34013KT 10SM BKN014 OVC022 01/01 A3010 RMK AO2

Hora: 15:38 (21:38 UTC)


TAF: manca

Observacions i pronòstics meteorològics de més de 4000 aeroports (METAR i TAF).

Les estacions disponibles són els punts grocs i vermells al mapa.

Posi el ratolí al punt desitjat per veure el nom de l'estació.

Feu clic per veure les observacions i els pronòstics meteorològics.

Per canviar el mapa: feu clic els botons verds amb una creu de color negre per apropar; al botó verd amb un guió per allunyar la imatge; o en les fletxes verdes per a mapes adjacents.


METAR-TAF: